sensor_id;sensor_type;location;lat;lon;timestamp;pressure;altitude;pressure_sealevel;temperature;humidity
3968;BME280;9221;42.646;23.380;2022-12-11T00:01:58;92514.09;;;12.57;93.54
3968;BME280;9221;42.646;23.380;2022-12-11T00:04:23;92437.09;;;12.14;93.67
3968;BME280;9221;42.646;23.380;2022-12-11T00:06:49;92476.47;;;12.23;94.10
3968;BME280;9221;42.646;23.380;2022-12-11T00:09:19;92524.53;;;12.45;94.15
3968;BME280;9221;42.646;23.380;2022-12-11T00:11:44;92528.00;;;12.45;94.25
3968;BME280;9221;42.646;23.380;2022-12-11T00:14:11;92410.06;;;12.12;93.95
3968;BME280;9221;42.646;23.380;2022-12-11T00:16:36;92467.84;;;12.34;94.41
3968;BME280;9221;42.646;23.380;2022-12-11T00:19:02;92467.59;;;12.10;94.33
3968;BME280;9221;42.646;23.380;2022-12-11T00:21:27;92462.69;;;12.21;94.46
3968;BME280;9221;42.646;23.380;2022-12-11T00:23:53;92536.72;;;12.07;94.79
3968;BME280;9221;42.646;23.380;2022-12-11T00:26:18;92411.31;;;11.71;94.99
3968;BME280;9221;42.646;23.380;2022-12-11T00:28:44;92502.47;;;12.26;95.33
3968;BME280;9221;42.646;23.380;2022-12-11T00:31:14;92447.63;;;12.21;95.55
3968;BME280;9221;42.646;23.380;2022-12-11T00:33:40;92516.66;;;12.31;95.75
3968;BME280;9221;42.646;23.380;2022-12-11T00:36:14;92410.50;;;12.09;95.28
3968;BME280;9221;42.646;23.380;2022-12-11T00:38:41;92455.63;;;12.40;94.87
3968;BME280;9221;42.646;23.380;2022-12-11T00:41:07;92460.84;;;12.46;95.13
3968;BME280;9221;42.646;23.380;2022-12-11T00:43:33;92493.81;;;12.44;94.78
3968;BME280;9221;42.646;23.380;2022-12-11T00:45:58;92469.91;;;12.32;94.81
3968;BME280;9221;42.646;23.380;2022-12-11T00:48:24;92497.97;;;12.33;95.21
3968;BME280;9221;42.646;23.380;2022-12-11T00:50:49;92420.84;;;12.11;95.56
3968;BME280;9221;42.646;23.380;2022-12-11T00:53:14;92492.19;;;12.11;95.70
3968;BME280;9221;42.646;23.380;2022-12-11T00:55:41;92468.56;;;12.23;95.64
3968;BME280;9221;42.646;23.380;2022-12-11T00:58:08;92519.94;;;12.27;96.00
3968;BME280;9221;42.646;23.380;2022-12-11T01:00:33;92401.06;;;11.95;95.48
3968;BME280;9221;42.646;23.380;2022-12-11T01:02:59;92472.03;;;12.16;95.99
3968;BME280;9221;42.646;23.380;2022-12-11T01:05:25;92418.91;;;11.99;95.83
3968;BME280;9221;42.646;23.380;2022-12-11T01:07:50;92518.19;;;12.21;95.95
3968;BME280;9221;42.646;23.380;2022-12-11T01:10:16;92456.16;;;12.16;95.76
3968;BME280;9221;42.646;23.380;2022-12-11T01:12:51;92461.38;;;12.30;95.59
3968;BME280;9221;42.646;23.380;2022-12-11T01:15:17;92522.97;;;12.37;95.18
3968;BME280;9221;42.646;23.380;2022-12-11T01:17:43;92449.34;;;12.34;95.46
3968;BME280;9221;42.646;23.380;2022-12-11T01:20:08;92449.63;;;12.26;95.10
3968;BME280;9221;42.646;23.380;2022-12-11T01:22:34;92488.00;;;12.35;95.10
3968;BME280;9221;42.646;23.380;2022-12-11T01:24:59;92477.84;;;12.32;95.25
3968;BME280;9221;42.646;23.380;2022-12-11T01:27:24;92431.34;;;11.85;95.51
3968;BME280;9221;42.646;23.380;2022-12-11T01:29:50;92472.84;;;12.17;95.35
3968;BME280;9221;42.646;23.380;2022-12-11T01:32:15;92492.84;;;12.38;95.34
3968;BME280;9221;42.646;23.380;2022-12-11T01:34:41;92547.94;;;12.41;95.65
3968;BME280;9221;42.646;23.380;2022-12-11T01:37:06;92490.84;;;12.33;96.01
3968;BME280;9221;42.646;23.380;2022-12-11T01:39:32;92463.75;;;12.38;96.26
3968;BME280;9221;42.646;23.380;2022-12-11T01:41:59;92537.53;;;12.46;96.63
3968;BME280;9221;42.646;23.380;2022-12-11T01:46:51;92432.91;;;12.32;98.96
3968;BME280;9221;42.646;23.380;2022-12-11T01:49:18;92455.44;;;12.41;98.89
3968;BME280;9221;42.646;23.380;2022-12-11T01:52:04;92383.16;;;11.97;98.81
3968;BME280;9221;42.646;23.380;2022-12-11T01:54:30;92471.53;;;12.33;99.30
3968;BME280;9221;42.646;23.380;2022-12-11T01:56:59;92349.00;;;12.02;99.43
3968;BME280;9221;42.646;23.380;2022-12-11T01:59:28;92478.53;;;12.21;99.83
3968;BME280;9221;42.646;23.380;2022-12-11T02:02:13;92515.81;;;12.06;100.00
3968;BME280;9221;42.646;23.380;2022-12-11T02:04:41;92494.31;;;12.27;100.00
3968;BME280;9221;42.646;23.380;2022-12-11T02:07:08;92512.63;;;12.29;100.00
3968;BME280;9221;42.646;23.380;2022-12-11T02:09:36;92495.66;;;12.11;100.00
3968;BME280;9221;42.646;23.380;2022-12-11T02:12:25;92447.50;;;12.09;100.00
3968;BME280;9221;42.646;23.380;2022-12-11T02:17:28;92526.50;;;12.17;100.00
3968;BME280;9221;42.646;23.380;2022-12-11T02:20:21;92430.91;;;11.89;100.00
3968;BME280;9221;42.646;23.380;2022-12-11T02:28:33;92456.75;;;12.50;100.00
3968;BME280;9221;42.646;23.380;2022-12-11T02:31:09;92418.50;;;12.53;100.00
3968;BME280;9221;42.646;23.380;2022-12-11T02:33:52;92386.00;;;12.52;100.00
3968;BME280;9221;42.646;23.380;2022-12-11T02:36:23;92369.44;;;12.39;100.00
3968;BME280;9221;42.646;23.380;2022-12-11T02:38:51;92356.72;;;12.29;99.70
3968;BME280;9221;42.646;23.380;2022-12-11T02:41:20;92357.19;;;12.44;99.90
3968;BME280;9221;42.646;23.380;2022-12-11T02:43:49;92397.06;;;12.86;99.28
3968;BME280;9221;42.646;23.380;2022-12-11T02:46:17;92362.22;;;12.71;98.57
3968;BME280;9221;42.646;23.380;2022-12-11T02:48:44;92369.84;;;12.79;98.34
3968;BME280;9221;42.646;23.380;2022-12-11T02:51:13;92355.63;;;12.80;97.53
3968;BME280;9221;42.646;23.380;2022-12-11T02:53:41;92406.94;;;13.16;97.03
3968;BME280;9221;42.646;23.380;2022-12-11T02:56:31;92353.44;;;12.96;96.89
3968;BME280;9221;42.646;23.380;2022-12-11T02:59:03;92310.94;;;12.72;95.99
3968;BME280;9221;42.646;23.380;2022-12-11T03:01:31;92384.00;;;13.29;95.45
3968;BME280;9221;42.646;23.380;2022-12-11T03:03:57;92362.47;;;13.25;94.90
3968;BME280;9221;42.646;23.380;2022-12-11T03:06:27;92458.00;;;13.42;94.45
3968;BME280;9221;42.646;23.380;2022-12-11T03:08:54;92369.06;;;13.16;94.27
3968;BME280;9221;42.646;23.380;2022-12-11T03:11:20;92408.59;;;13.54;94.39
3968;BME280;9221;42.646;23.380;2022-12-11T03:13:45;92433.88;;;13.50;93.56
3968;BME280;9221;42.646;23.380;2022-12-11T03:19:05;92388.53;;;13.21;93.85
3968;BME280;9221;42.646;23.380;2022-12-11T03:24:29;92482.84;;;13.60;92.96
3968;BME280;9221;42.646;23.380;2022-12-11T03:27:03;92379.31;;;13.49;92.96
3968;BME280;9221;42.646;23.380;2022-12-11T03:29:35;92355.66;;;13.36;93.07
3968;BME280;9221;42.646;23.380;2022-12-11T03:32:11;92412.09;;;13.67;92.26
3968;BME280;9221;42.646;23.380;2022-12-11T03:34:44;92442.19;;;13.73;92.20
3968;BME280;9221;42.646;23.380;2022-12-11T03:37:12;92367.25;;;13.53;90.24
3968;BME280;9221;42.646;23.380;2022-12-11T03:39:43;92420.34;;;13.59;89.75
3968;BME280;9221;42.646;23.380;2022-12-11T03:42:13;92420.72;;;13.93;88.57
3968;BME280;9221;42.646;23.380;2022-12-11T03:44:43;92469.16;;;14.00;88.21
3968;BME280;9221;42.646;23.380;2022-12-11T03:47:15;92401.44;;;13.85;88.24
3968;BME280;9221;42.646;23.380;2022-12-11T03:49:44;92430.69;;;14.09;88.02
3968;BME280;9221;42.646;23.380;2022-12-11T03:52:11;92428.31;;;14.19;87.51
3968;BME280;9221;42.646;23.380;2022-12-11T03:54:40;92445.06;;;14.32;85.88
3968;BME280;9221;42.646;23.380;2022-12-11T03:57:07;92390.00;;;14.03;85.67
3968;BME280;9221;42.646;23.380;2022-12-11T03:59:33;92499.16;;;14.43;84.86
3968;BME280;9221;42.646;23.380;2022-12-11T04:01:58;92453.59;;;14.34;85.29
3968;BME280;9221;42.646;23.380;2022-12-11T04:04:24;92477.66;;;14.32;85.95
3968;BME280;9221;42.646;23.380;2022-12-11T04:06:49;92424.75;;;14.26;85.58
3968;BME280;9221;42.646;23.380;2022-12-11T04:09:15;92414.50;;;14.29;84.09
3968;BME280;9221;42.646;23.380;2022-12-11T04:11:40;92436.03;;;14.63;81.97
3968;BME280;9221;42.646;23.380;2022-12-11T04:14:12;92425.38;;;14.39;80.76
3968;BME280;9221;42.646;23.380;2022-12-11T04:16:58;92474.00;;;14.76;79.65
3968;BME280;9221;42.646;23.380;2022-12-11T04:19:24;92477.81;;;14.80;79.78
3968;BME280;9221;42.646;23.380;2022-12-11T04:22:10;92447.38;;;14.82;79.93
3968;BME280;9221;42.646;23.380;2022-12-11T04:24:54;92490.28;;;14.91;79.66
3968;BME280;9221;42.646;23.380;2022-12-11T04:27:20;92480.72;;;15.02;79.15
3968;BME280;9221;42.646;23.380;2022-12-11T04:30:08;92438.91;;;14.62;79.79
3968;BME280;9221;42.646;23.380;2022-12-11T04:32:33;92485.22;;;14.89;80.16
3968;BME280;9221;42.646;23.380;2022-12-11T04:34:59;92502.06;;;14.95;79.56
3968;BME280;9221;42.646;23.380;2022-12-11T04:37:27;92576.75;;;14.99;79.54
3968;BME280;9221;42.646;23.380;2022-12-11T04:39:52;92477.94;;;14.73;79.43
3968;BME280;9221;42.646;23.380;2022-12-11T04:42:18;92459.94;;;14.75;79.24
3968;BME280;9221;42.646;23.380;2022-12-11T04:44:43;92459.47;;;14.78;79.16
3968;BME280;9221;42.646;23.380;2022-12-11T04:47:09;92533.81;;;15.02;79.63
3968;BME280;9221;42.646;23.380;2022-12-11T04:49:34;92457.28;;;14.75;80.18
3968;BME280;9221;42.646;23.380;2022-12-11T04:51:59;92515.47;;;15.00;79.07
3968;BME280;9221;42.646;23.380;2022-12-11T04:54:25;92491.22;;;14.85;78.77
3968;BME280;9221;42.646;23.380;2022-12-11T04:56:50;92484.84;;;14.74;78.19
3968;BME280;9221;42.646;23.380;2022-12-11T04:59:16;92480.59;;;14.73;78.54
3968;BME280;9221;42.646;23.380;2022-12-11T05:01:41;92563.75;;;15.09;75.15
3968;BME280;9221;42.646;23.380;2022-12-11T05:04:06;92489.63;;;14.96;74.06
3968;BME280;9221;42.646;23.380;2022-12-11T05:06:32;92544.50;;;15.26;73.77
3968;BME280;9221;42.646;23.380;2022-12-11T05:08:57;92505.88;;;14.99;74.56
3968;BME280;9221;42.646;23.380;2022-12-11T05:11:22;92482.34;;;15.03;74.59
3968;BME280;9221;42.646;23.380;2022-12-11T05:13:48;92542.97;;;15.42;71.41
3968;BME280;9221;42.646;23.380;2022-12-11T05:16:15;92492.97;;;15.27;70.07
3968;BME280;9221;42.646;23.380;2022-12-11T05:18:41;92570.69;;;15.46;69.08
3968;BME280;9221;42.646;23.380;2022-12-11T05:21:09;92571.41;;;15.53;69.83
3968;BME280;9221;42.646;23.380;2022-12-11T05:23:36;92560.69;;;15.60;69.34
3968;BME280;9221;42.646;23.380;2022-12-11T05:26:12;92588.41;;;15.64;67.39
3968;BME280;9221;42.646;23.380;2022-12-11T05:28:38;92569.22;;;15.85;65.54
3968;BME280;9221;42.646;23.380;2022-12-11T05:31:15;92534.66;;;15.62;65.07
3968;BME280;9221;42.646;23.380;2022-12-11T05:33:42;92535.72;;;15.84;65.24
3968;BME280;9221;42.646;23.380;2022-12-11T05:36:13;92555.00;;;15.92;64.72
3968;BME280;9221;42.646;23.380;2022-12-11T05:38:39;92596.25;;;16.06;63.78
3968;BME280;9221;42.646;23.380;2022-12-11T05:41:05;92481.28;;;15.87;63.93
3968;BME280;9221;42.646;23.380;2022-12-11T05:43:33;92405.56;;;15.37;63.91
3968;BME280;9221;42.646;23.380;2022-12-11T05:46:13;92524.16;;;15.67;63.60
3968;BME280;9221;42.646;23.380;2022-12-11T05:48:40;92490.84;;;16.00;61.66
3968;BME280;9221;42.646;23.380;2022-12-11T05:51:07;92527.06;;;16.30;61.38
3968;BME280;9221;42.646;23.380;2022-12-11T05:53:33;92534.00;;;16.31;60.72
3968;BME280;9221;42.646;23.380;2022-12-11T05:56:03;92522.59;;;16.47;61.50
3968;BME280;9221;42.646;23.380;2022-12-11T05:58:29;92516.91;;;16.55;61.59
3968;BME280;9221;42.646;23.380;2022-12-11T06:00:55;92487.94;;;16.59;61.50
3968;BME280;9221;42.646;23.380;2022-12-11T06:03:20;92492.97;;;16.55;61.65
3968;BME280;9221;42.646;23.380;2022-12-11T06:05:45;92532.50;;;16.64;62.38
3968;BME280;9221;42.646;23.380;2022-12-11T06:08:11;92505.03;;;16.46;62.95
3968;BME280;9221;42.646;23.380;2022-12-11T06:10:36;92468.16;;;16.09;62.10
3968;BME280;9221;42.646;23.380;2022-12-11T06:13:02;92618.28;;;16.42;62.27
3968;BME280;9221;42.646;23.380;2022-12-11T06:15:27;92466.06;;;16.40;61.91
3968;BME280;9221;42.646;23.380;2022-12-11T06:17:53;92465.56;;;16.14;62.21
3968;BME280;9221;42.646;23.380;2022-12-11T06:20:18;92504.66;;;16.14;61.74
3968;BME280;9221;42.646;23.380;2022-12-11T06:22:43;92456.25;;;16.12;61.84
3968;BME280;9221;42.646;23.380;2022-12-11T06:25:09;92544.06;;;16.57;61.43
3968;BME280;9221;42.646;23.380;2022-12-11T06:27:34;92527.44;;;16.50;59.28
3968;BME280;9221;42.646;23.380;2022-12-11T06:30:00;92496.75;;;16.31;60.27
3968;BME280;9221;42.646;23.380;2022-12-11T06:32:26;92527.38;;;15.93;60.64
3968;BME280;9221;42.646;23.380;2022-12-11T06:34:51;92566.59;;;16.38;61.61
3968;BME280;9221;42.646;23.380;2022-12-11T06:37:16;92587.97;;;16.43;60.86
3968;BME280;9221;42.646;23.380;2022-12-11T06:39:42;92538.59;;;16.64;61.28
3968;BME280;9221;42.646;23.380;2022-12-11T06:42:07;92525.88;;;16.66;61.36
3968;BME280;9221;42.646;23.380;2022-12-11T06:44:32;92515.19;;;16.49;59.80
3968;BME280;9221;42.646;23.380;2022-12-11T06:46:58;92524.06;;;16.55;61.32
3968;BME280;9221;42.646;23.380;2022-12-11T06:49:23;92511.28;;;16.40;58.97
3968;BME280;9221;42.646;23.380;2022-12-11T06:51:49;92543.69;;;16.66;58.50
3968;BME280;9221;42.646;23.380;2022-12-11T06:54:14;92442.59;;;16.37;57.95
3968;BME280;9221;42.646;23.380;2022-12-11T06:56:39;92641.81;;;17.03;58.81
3968;BME280;9221;42.646;23.380;2022-12-11T06:59:05;92549.84;;;16.95;60.28
3968;BME280;9221;42.646;23.380;2022-12-11T07:01:31;92572.19;;;16.82;60.22
3968;BME280;9221;42.646;23.380;2022-12-11T07:03:58;92582.28;;;16.80;60.29
3968;BME280;9221;42.646;23.380;2022-12-11T07:06:25;92577.25;;;16.96;59.99
3968;BME280;9221;42.646;23.380;2022-12-11T07:08:51;92571.38;;;16.94;60.19
3968;BME280;9221;42.646;23.380;2022-12-11T07:11:18;92551.13;;;16.92;61.55
3968;BME280;9221;42.646;23.380;2022-12-11T07:13:43;92538.59;;;16.64;61.45
3968;BME280;9221;42.646;23.380;2022-12-11T07:16:10;92507.56;;;16.70;61.73
3968;BME280;9221;42.646;23.380;2022-12-11T07:18:37;92472.31;;;16.63;61.86
3968;BME280;9221;42.646;23.380;2022-12-11T07:21:04;92474.09;;;16.74;61.61
3968;BME280;9221;42.646;23.380;2022-12-11T07:23:30;92568.91;;;17.38;60.35
3968;BME280;9221;42.646;23.380;2022-12-11T07:25:55;92487.44;;;16.45;61.21
3968;BME280;9221;42.646;23.380;2022-12-11T07:28:22;92568.28;;;16.73;61.91
3968;BME280;9221;42.646;23.380;2022-12-11T07:30:48;92549.75;;;16.78;62.03
3968;BME280;9221;42.646;23.380;2022-12-11T07:33:13;92583.06;;;16.92;62.50
3968;BME280;9221;42.646;23.380;2022-12-11T07:35:39;92575.44;;;16.84;62.63
3968;BME280;9221;42.646;23.380;2022-12-11T07:38:05;92592.84;;;16.75;62.79
3968;BME280;9221;42.646;23.380;2022-12-11T07:40:32;92633.91;;;16.79;63.05
3968;BME280;9221;42.646;23.380;2022-12-11T07:42:57;92591.88;;;16.81;62.79
3968;BME280;9221;42.646;23.380;2022-12-11T07:45:23;92616.13;;;16.68;63.07
3968;BME280;9221;42.646;23.380;2022-12-11T07:47:50;92607.44;;;16.61;62.33
3968;BME280;9221;42.646;23.380;2022-12-11T07:50:16;92660.94;;;16.88;61.88
3968;BME280;9221;42.646;23.380;2022-12-11T07:52:42;92623.78;;;17.05;61.99
3968;BME280;9221;42.646;23.380;2022-12-11T07:55:07;92595.91;;;16.96;61.53
3968;BME280;9221;42.646;23.380;2022-12-11T07:57:33;92626.03;;;17.13;60.97
3968;BME280;9221;42.646;23.380;2022-12-11T07:59:58;92580.78;;;16.84;61.08
3968;BME280;9221;42.646;23.380;2022-12-11T08:02:23;92569.44;;;16.77;61.11
3968;BME280;9221;42.646;23.380;2022-12-11T08:04:49;92593.47;;;16.65;61.78
3968;BME280;9221;42.646;23.380;2022-12-11T08:07:14;92597.38;;;16.74;60.76
3968;BME280;9221;42.646;23.380;2022-12-11T08:09:40;92606.31;;;16.56;62.02
3968;BME280;9221;42.646;23.380;2022-12-11T08:12:05;92643.97;;;16.77;62.36
3968;BME280;9221;42.646;23.380;2022-12-11T08:14:31;92614.28;;;16.68;62.69
3968;BME280;9221;42.646;23.380;2022-12-11T08:16:56;92634.31;;;16.88;63.14
3968;BME280;9221;42.646;23.380;2022-12-11T08:19:22;92669.66;;;16.83;63.65
3968;BME280;9221;42.646;23.380;2022-12-11T08:21:47;92650.84;;;16.61;64.56
3968;BME280;9221;42.646;23.380;2022-12-11T08:24:13;92621.47;;;16.56;65.35
3968;BME280;9221;42.646;23.380;2022-12-11T08:26:40;92625.31;;;16.48;65.23
3968;BME280;9221;42.646;23.380;2022-12-11T08:29:06;92727.81;;;16.63;65.23
3968;BME280;9221;42.646;23.380;2022-12-11T08:31:32;92621.59;;;16.49;65.48
3968;BME280;9221;42.646;23.380;2022-12-11T08:33:57;92608.41;;;16.54;65.34
3968;BME280;9221;42.646;23.380;2022-12-11T08:36:24;92626.84;;;16.73;65.62
3968;BME280;9221;42.646;23.380;2022-12-11T08:38:50;92583.88;;;16.52;65.18
3968;BME280;9221;42.646;23.380;2022-12-11T08:41:22;92622.22;;;16.80;64.43
3968;BME280;9221;42.646;23.380;2022-12-11T08:43:49;92667.75;;;16.67;64.37
3968;BME280;9221;42.646;23.380;2022-12-11T08:46:17;92606.50;;;16.26;64.78
3968;BME280;9221;42.646;23.380;2022-12-11T08:48:42;92548.06;;;16.02;64.61
3968;BME280;9221;42.646;23.380;2022-12-11T08:51:12;92663.38;;;16.49;64.24
3968;BME280;9221;42.646;23.380;2022-12-11T08:53:38;92606.69;;;16.77;63.36
3968;BME280;9221;42.646;23.380;2022-12-11T08:56:06;92605.81;;;17.00;63.55
3968;BME280;9221;42.646;23.380;2022-12-11T08:58:32;92590.34;;;16.97;63.54
3968;BME280;9221;42.646;23.380;2022-12-11T09:00:58;92576.78;;;16.99;63.71
3968;BME280;9221;42.646;23.380;2022-12-11T09:03:23;92680.84;;;17.09;64.15
3968;BME280;9221;42.646;23.380;2022-12-11T09:05:49;92569.25;;;16.67;64.54
3968;BME280;9221;42.646;23.380;2022-12-11T09:08:15;92652.41;;;16.86;65.38
3968;BME280;9221;42.646;23.380;2022-12-11T09:10:40;92594.22;;;16.89;65.15
3968;BME280;9221;42.646;23.380;2022-12-11T09:13:06;92570.06;;;16.67;64.76
3968;BME280;9221;42.646;23.380;2022-12-11T09:15:31;92589.06;;;16.59;63.90
3968;BME280;9221;42.646;23.380;2022-12-11T09:17:56;92528.59;;;16.54;63.75
3968;BME280;9221;42.646;23.380;2022-12-11T09:20:22;92595.28;;;17.05;63.73
3968;BME280;9221;42.646;23.380;2022-12-11T09:22:47;92534.03;;;16.77;64.11
3968;BME280;9221;42.646;23.380;2022-12-11T09:25:13;92464.66;;;16.20;63.89
3968;BME280;9221;42.646;23.380;2022-12-11T09:27:38;92598.38;;;16.85;64.21
3968;BME280;9221;42.646;23.380;2022-12-11T09:30:04;92551.03;;;16.75;62.52
3968;BME280;9221;42.646;23.380;2022-12-11T09:32:29;92577.41;;;16.77;63.14
3968;BME280;9221;42.646;23.380;2022-12-11T09:34:55;92597.88;;;16.88;63.92
3968;BME280;9221;42.646;23.380;2022-12-11T09:37:20;92586.09;;;17.13;64.28
3968;BME280;9221;42.646;23.380;2022-12-11T09:39:45;92552.59;;;17.17;63.87
3968;BME280;9221;42.646;23.380;2022-12-11T09:44:43;92604.53;;;17.03;62.56
3968;BME280;9221;42.646;23.380;2022-12-11T09:52:53;92658.38;;;17.34;61.33
3968;BME280;9221;42.646;23.380;2022-12-11T09:55:24;92559.28;;;17.03;61.88
3968;BME280;9221;42.646;23.380;2022-12-11T10:01:11;92573.56;;;16.97;64.33
3968;BME280;9221;42.646;23.380;2022-12-11T10:07:15;92593.47;;;16.65;66.21
3968;BME280;9221;42.646;23.380;2022-12-11T10:09:53;92613.47;;;16.68;66.63
3968;BME280;9221;42.646;23.380;2022-12-11T10:15:23;92595.63;;;16.28;67.02
3968;BME280;9221;42.646;23.380;2022-12-11T10:17:51;92626.75;;;16.39;68.13
3968;BME280;9221;42.646;23.380;2022-12-11T10:20:24;92581.66;;;16.61;67.93
3968;BME280;9221;42.646;23.380;2022-12-11T10:22:52;92539.78;;;16.56;67.56
3968;BME280;9221;42.646;23.380;2022-12-11T10:25:27;92607.13;;;16.98;66.88
3968;BME280;9221;42.646;23.380;2022-12-11T10:27:53;92547.69;;;16.80;67.27
3968;BME280;9221;42.646;23.380;2022-12-11T10:30:24;92618.94;;;16.49;68.89
3968;BME280;9221;42.646;23.380;2022-12-11T10:38:12;92610.59;;;16.57;73.73
3968;BME280;9221;42.646;23.380;2022-12-11T10:40:42;92550.53;;;16.62;72.34
3968;BME280;9221;42.646;23.380;2022-12-11T10:43:08;92564.31;;;16.87;72.02
3968;BME280;9221;42.646;23.380;2022-12-11T10:45:33;92570.31;;;16.95;68.46
3968;BME280;9221;42.646;23.380;2022-12-11T10:48:11;92488.78;;;16.60;65.83
3968;BME280;9221;42.646;23.380;2022-12-11T10:50:37;92549.84;;;17.12;66.29
3968;BME280;9221;42.646;23.380;2022-12-11T10:53:04;92549.38;;;17.32;66.21
3968;BME280;9221;42.646;23.380;2022-12-11T10:55:44;92594.09;;;17.13;65.51
3968;BME280;9221;42.646;23.380;2022-12-11T10:58:18;92558.19;;;16.87;65.35
3968;BME280;9221;42.646;23.380;2022-12-11T11:00:45;92550.81;;;17.06;65.01
3968;BME280;9221;42.646;23.380;2022-12-11T11:03:22;92570.84;;;17.25;64.80
3968;BME280;9221;42.646;23.380;2022-12-11T11:05:48;92538.16;;;17.13;64.74
3968;BME280;9221;42.646;23.380;2022-12-11T11:08:20;92551.44;;;16.96;65.67
3968;BME280;9221;42.646;23.380;2022-12-11T11:10:53;92503.84;;;17.00;65.20
3968;BME280;9221;42.646;23.380;2022-12-11T11:13:24;92509.34;;;17.10;65.23
3968;BME280;9221;42.646;23.380;2022-12-11T11:16:01;92537.09;;;17.31;64.50
3968;BME280;9221;42.646;23.380;2022-12-11T11:18:28;92544.59;;;17.17;64.93
3968;BME280;9221;42.646;23.380;2022-12-11T11:20:55;92524.50;;;16.92;65.14
3968;BME280;9221;42.646;23.380;2022-12-11T11:23:22;92510.34;;;16.46;65.16
3968;BME280;9221;42.646;23.380;2022-12-11T11:25:58;92540.25;;;16.82;67.51
3968;BME280;9221;42.646;23.380;2022-12-11T11:28:36;92534.84;;;16.48;69.98
3968;BME280;9221;42.646;23.380;2022-12-11T11:31:10;92568.38;;;16.20;72.05
3968;BME280;9221;42.646;23.380;2022-12-11T11:33:43;92545.09;;;16.28;72.53
3968;BME280;9221;42.646;23.380;2022-12-11T11:36:27;92515.84;;;16.28;72.62
3968;BME280;9221;42.646;23.380;2022-12-11T11:41:39;92515.25;;;16.83;71.92
3968;BME280;9221;42.646;23.380;2022-12-11T11:44:11;92497.50;;;16.72;69.45
3968;BME280;9221;42.646;23.380;2022-12-11T11:46:46;92471.66;;;16.55;70.00
3968;BME280;9221;42.646;23.380;2022-12-11T11:52:22;92442.88;;;16.23;68.63
3968;BME280;9221;42.646;23.380;2022-12-11T11:57:48;92516.38;;;16.87;72.29
3968;BME280;9221;42.646;23.380;2022-12-11T12:00:22;92543.41;;;16.50;73.26
3968;BME280;9221;42.646;23.380;2022-12-11T12:02:51;92499.81;;;16.22;75.26
3968;BME280;9221;42.646;23.380;2022-12-11T12:05:23;92438.19;;;15.73;75.59
3968;BME280;9221;42.646;23.380;2022-12-11T12:08:19;92602.38;;;16.18;77.08
3968;BME280;9221;42.646;23.380;2022-12-11T12:11:04;92499.81;;;16.22;77.24
3968;BME280;9221;42.646;23.380;2022-12-11T12:19:12;92541.03;;;16.37;77.78
3968;BME280;9221;42.646;23.380;2022-12-11T12:21:42;92567.09;;;16.11;76.78
3968;BME280;9221;42.646;23.380;2022-12-11T12:24:33;92465.53;;;15.97;77.35
3968;BME280;9221;42.646;23.380;2022-12-11T12:29:52;92460.94;;;16.21;77.08
3968;BME280;9221;42.646;23.380;2022-12-11T12:33:00;92504.06;;;16.52;76.72
3968;BME280;9221;42.646;23.380;2022-12-11T12:35:49;92487.06;;;16.24;77.01
3968;BME280;9221;42.646;23.380;2022-12-11T12:49:24;92505.19;;;14.01;77.47
3968;BME280;9221;42.646;23.380;2022-12-11T12:51:51;92536.06;;;13.95;78.04
3968;BME280;9221;42.646;23.380;2022-12-11T12:54:18;92527.75;;;13.54;78.69
3968;BME280;9221;42.646;23.380;2022-12-11T12:56:45;92563.22;;;13.21;79.51
3968;BME280;9221;42.646;23.380;2022-12-11T13:01:46;92575.31;;;12.85;80.16
3968;BME280;9221;42.646;23.380;2022-12-11T13:04:39;92649.09;;;12.68;80.71
3968;BME280;9221;42.646;23.380;2022-12-11T13:07:19;92610.22;;;12.24;81.95
3968;BME280;9221;42.646;23.380;2022-12-11T13:12:44;92611.34;;;11.89;84.14
3968;BME280;9221;42.646;23.380;2022-12-11T13:15:39;92609.94;;;11.73;84.89
3968;BME280;9221;42.646;23.380;2022-12-11T13:18:36;92617.91;;;11.46;84.94
3968;BME280;9221;42.646;23.380;2022-12-11T13:21:35;92644.09;;;11.14;85.92
3968;BME280;9221;42.646;23.380;2022-12-11T13:26:45;92632.63;;;10.54;86.75
3968;BME280;9221;42.646;23.380;2022-12-11T13:32:23;92703.53;;;10.07;87.95
3968;BME280;9221;42.646;23.380;2022-12-11T13:35:06;92687.75;;;9.78;88.31
3968;BME280;9221;42.646;23.380;2022-12-11T13:37:40;92631.88;;;9.48;88.51
3968;BME280;9221;42.646;23.380;2022-12-11T13:40:14;92697.72;;;9.55;88.91
3968;BME280;9221;42.646;23.380;2022-12-11T13:42:54;92583.78;;;8.76;89.16
3968;BME280;9221;42.646;23.380;2022-12-11T13:45:26;92713.63;;;9.46;89.68
3968;BME280;9221;42.646;23.380;2022-12-11T13:47:55;92693.44;;;9.25;88.93
3968;BME280;9221;42.646;23.380;2022-12-11T13:50:28;92754.69;;;9.41;89.18
3968;BME280;9221;42.646;23.380;2022-12-11T13:52:56;92712.03;;;9.24;88.86
3968;BME280;9221;42.646;23.380;2022-12-11T13:55:28;92742.41;;;9.26;88.73
3968;BME280;9221;42.646;23.380;2022-12-11T13:57:55;92826.53;;;9.05;88.62
3968;BME280;9221;42.646;23.380;2022-12-11T14:00:23;92720.66;;;8.96;88.25
3968;BME280;9221;42.646;23.380;2022-12-11T14:02:50;92731.00;;;8.97;88.08
3968;BME280;9221;42.646;23.380;2022-12-11T14:05:17;92727.84;;;8.51;88.38
3968;BME280;9221;42.646;23.380;2022-12-11T14:07:50;92750.13;;;8.70;87.86
3968;BME280;9221;42.646;23.380;2022-12-11T14:12:55;92779.31;;;8.60;88.07
3968;BME280;9221;42.646;23.380;2022-12-11T14:15:21;92759.56;;;8.34;89.10
3968;BME280;9221;42.646;23.380;2022-12-11T14:17:48;92797.78;;;8.52;88.61
3968;BME280;9221;42.646;23.380;2022-12-11T14:20:19;92729.66;;;8.35;89.22
3968;BME280;9221;42.646;23.380;2022-12-11T14:22:45;92789.97;;;8.43;89.50
3968;BME280;9221;42.646;23.380;2022-12-11T14:25:23;92776.47;;;8.32;88.63
3968;BME280;9221;42.646;23.380;2022-12-11T14:27:51;92668.03;;;7.56;88.74
3968;BME280;9221;42.646;23.380;2022-12-11T14:30:25;92753.13;;;8.07;88.94
3968;BME280;9221;42.646;23.380;2022-12-11T14:32:54;92817.31;;;8.34;89.07
3968;BME280;9221;42.646;23.380;2022-12-11T14:35:28;92805.72;;;8.13;88.39
3968;BME280;9221;42.646;23.380;2022-12-11T14:37:54;92786.66;;;7.82;89.35
3968;BME280;9221;42.646;23.380;2022-12-11T14:40:34;92805.16;;;8.03;89.77
3968;BME280;9221;42.646;23.380;2022-12-11T14:43:04;92813.56;;;7.99;88.94
3968;BME280;9221;42.646;23.380;2022-12-11T14:45:35;92812.31;;;7.94;89.15